Latest Weather Observations for Sheoaks

IDV60801

Issued at 1:02 pm EDT Tuesday 31 March 2015 (issued every 30 minutes, with the page automatically refreshed every 10 minutes)

About weather observations | Map of weather stations | Latest weather observations for VIC | Other Formats
Station Details ID: 087168 Name: SHEOAKS Lat: -37.91 Lon: 144.13 Height: 236.7 m
Data from the previous 72 hours. | See also: Recent months at Sheoaks
Date/Time
EDT
Temp
°C
App
Temp
°C
Dew
Point
Rel
Hum
%
Delta-T
°C
Wind Press
QNH
hPa
Press
MSL
hPa
Rain
since 9 am
mm
Dir
 
Spd
km/h
Gust
km/h
Spd
kts
Gust
kts
31/01:00pm 23.2 22.1 9.9 43 7.3 ENE 6 13 3 7 1024.5 1024.1 0.0
31/12:30pm 22.7 21.1 10.2 45 6.9 ENE 9 17 5 9 1025.0 1024.5 0.0
31/12:00pm 21.9 20.1 11.0 50 6.1 NE 11 17 6 9 1025.6 1025.1 0.0
31/11:30am 20.5 19.0 10.6 53 5.4 E 9 17 5 9 1026.1 1025.6 0.0
31/11:00am 19.4 17.9 10.7 57 4.7 E 9 17 5 9 1026.5 1026.0 0.0
31/10:30am 17.4 16.3 10.8 65 3.6 SE 7 9 4 5 1027.0 1026.6 0.0
31/10:00am 16.4 15.8 10.5 68 3.1 E 4 9 2 5 1027.2 1026.8 0.0
31/09:30am 13.1 12.2 9.4 78 1.9 N 4 6 2 3 1027.1 1026.7 0.0
31/09:00am 10.7 9.4 9.1 90 0.8 N 6 7 3 4 1026.9 1026.5 0.0
31/08:30am 8.3 6.0 7.4 94 0.4 N 9 11 5 6 1026.5 1026.0 0.0
31/08:00am 7.9 5.5 7.1 95 0.4 NNW 9 11 5 6 1026.4 1025.9 0.0
31/07:30am 8.1 5.8 7.3 95 0.4 NNW 9 11 5 6 1026.2 1025.7 0.0
31/07:00am 7.8 5.4 7.1 95 0.3 N 9 11 5 6 1025.9 1025.4 0.0
31/06:30am 7.5 5.1 6.8 95 0.3 N 9 11 5 6 1025.8 1025.3 0.0
31/06:00am 7.5 5.1 6.8 95 0.3 N 9 9 5 5 1025.5 1025.0 0.0
31/05:30am 7.8 5.4 7.1 95 0.3 N 9 9 5 5 1025.6 1025.1 0.0
31/05:00am 8.0 6.0 7.1 94 0.4 NNW 7 9 4 5 1025.6 1025.1 0.0
31/04:30am 8.3 6.4 7.4 94 0.4 N 7 7 4 4 1025.6 1025.1 0.0
31/04:00am 8.4 6.1 7.5 94 0.4 N 9 9 5 5 1025.6 1025.1 0.0
31/03:30am 8.5 6.2 7.4 93 0.5 N 9 11 5 6 1025.7 1025.2 0.0
31/03:00am 8.5 6.6 7.4 93 0.5 N 7 9 4 5 1026.2 1025.7 0.0
31/02:30am 9.0 6.8 7.8 92 0.6 N 9 9 5 5 1026.3 1025.8 0.0
31/02:00am 9.2 7.0 8.0 92 0.6 NNW 9 9 5 5 1026.3 1025.8 0.0
31/01:30am 9.6 7.5 8.4 92 0.6 N 9 9 5 5 1026.4 1025.9 0.0
31/01:00am 9.6 7.9 8.2 91 0.7 N 7 9 4 5 1026.5 1026.0 0.0
31/12:30am 9.9 8.4 8.5 91 0.7 N 6 6 3 3 1026.6 1026.1 0.0
31/12:00am 10.2 9.1 8.6 90 0.8 NNE 4 4 2 2 1026.7 1026.2 0.0
 
Date/Time
EDT
Temp
°C
App
Temp
°C
Dew
Point
Rel
Hum
%
Delta-T
°C
Wind Press
QNH
hPa
Press
MSL
hPa
Rain
since 9 am
mm
Dir
 
Spd
km/h
Gust
km/h
Spd
kts
Gust
kts
30/11:30pm 10.6 9.6 8.9 89 0.9 NNE 4 4 2 2 1026.9 1026.5 0.0
30/11:00pm 11.5 10.3 9.6 88 1.0 NE 6 6 3 3 1026.8 1026.4 0.0
30/10:30pm 12.2 11.5 9.9 86 1.2 NNE 4 4 2 2 1026.9 1026.5 0.0
30/10:00pm 12.8 11.9 10.5 86 1.2 NE 6 6 3 3 1026.9 1026.5 0.0
30/09:30pm 13.4 12.5 10.6 83 1.5 E 6 7 3 4 1026.9 1026.5 0.0
30/09:00pm 13.9 12.8 10.7 81 1.7 SE 7 7 4 4 1026.8 1026.4 0.0
30/08:30pm 14.7 13.2 10.7 77 2.1 ESE 9 11 5 6 1026.5 1026.0 0.0
30/08:00pm 15.5 13.9 10.3 71 2.8 ESE 9 13 5 7 1026.2 1025.7 0.0
30/07:30pm 16.5 15.0 10.4 67 3.3 ESE 9 13 5 7 1025.8 1025.3 0.0
30/07:00pm 17.6 14.9 10.5 63 3.8 ESE 15 19 8 10 1025.5 1025.0 0.0
30/06:30pm 19.9 17.9 10.3 54 5.2 SE 11 15 6 8 1024.7 1024.3 0.0
30/06:00pm 21.6 19.4 9.5 46 6.5 SW 11 17 6 9 1024.2 1023.8 0.0
30/05:30pm 21.7 19.2 9.6 46 6.6 SW 13 19 7 10 1024.0 1023.6 0.0
30/05:00pm 21.9 19.2 9.1 44 6.9 SSW 13 20 7 11 1023.8 1023.4 0.0
30/04:30pm 22.1 19.8 8.9 43 7.1 SW 11 20 6 11 1023.7 1023.3 0.0
30/04:00pm 22.9 21.0 9.0 41 7.5 SW 9 17 5 9 1023.7 1023.3 0.0
30/03:30pm 22.4 19.6 8.5 41 7.4 SW 13 20 7 11 1023.8 1023.4 0.0
30/03:00pm 22.4 20.3 8.1 40 7.6 SW 9 19 5 10 1024.0 1023.6 0.0
30/02:30pm 22.7 21.0 8.4 40 7.7 W 7 17 4 9 1024.1 1023.7 0.0
30/02:00pm 21.3 19.2 8.2 43 6.9 WSW 9 17 5 9 1024.4 1024.0 0.0
30/01:30pm 21.4 19.1 9.0 45 6.7 WSW 11 20 6 11 1024.6 1024.2 0.0
30/01:00pm 20.9 19.2 9.8 49 6.0 WSW 9 15 5 8 1024.9 1024.4 0.0
30/12:30pm 20.1 18.4 9.7 51 5.6 WSW 9 17 5 9 1025.1 1024.6 0.0
30/12:00pm 19.7 18.4 9.3 51 5.5 WSW 6 13 3 7 1025.2 1024.7 0.0
30/11:30am 19.0 18.2 9.8 55 4.9 S 4 9 2 5 1025.4 1024.9 0.0
30/11:00am 18.3 17.5 9.6 57 4.6 SE 4 7 2 4 1025.5 1025.0 0.0
30/10:30am 17.1 16.2 9.3 60 4.1 SW 4 7 2 4 1025.4 1024.9 0.0
30/10:00am 15.9 15.2 10.0 68 3.1 NW 4 4 2 2 1025.3 1024.8 0.0
30/09:30am 13.1 11.8 9.2 77 2.0 N 6 7 3 4 1025.2 1024.7 0.0
30/09:00am 10.2 8.0 7.8 85 1.2 NNW 9 9 5 5 1024.7 1024.3 0.0
30/08:30am 8.3 5.9 6.9 91 0.7 NNW 9 11 5 6 1024.5 1024.1 0.0
30/08:00am 7.5 4.6 6.3 92 0.6 N 11 13 6 7 1024.2 1023.8 0.0
30/07:30am 7.5 4.9 6.1 91 0.6 NNW 9 11 5 6 1023.8 1023.4 0.0
30/07:00am 7.8 5.3 6.4 91 0.6 NNW 9 11 5 6 1023.6 1023.2 0.0
30/06:30am 8.1 5.6 6.7 91 0.7 NNW 9 11 5 6 1023.2 1022.8 0.0
30/06:00am 8.3 5.9 6.9 91 0.7 NNW 9 11 5 6 1023.1 1022.7 0.0
30/05:30am 8.4 6.0 7.0 91 0.7 NNW 9 11 5 6 1022.9 1022.4 0.0
30/05:00am 8.8 6.8 7.3 90 0.7 NNW 7 9 4 5 1022.6 1022.1 0.0
30/04:30am 8.8 6.5 7.4 91 0.7 N 9 11 5 6 1022.7 1022.2 0.0
30/04:00am 8.9 6.7 7.7 92 0.6 N 9 13 5 7 1022.8 1022.3 0.0
30/03:30am 9.1 6.9 7.9 92 0.6 N 9 11 5 6 1023.1 1022.7 0.0
30/03:00am 9.2 7.4 8.0 92 0.6 NNW 7 9 4 5 1023.4 1023.0 0.0
30/02:30am 9.6 7.5 8.4 92 0.6 N 9 13 5 7 1023.6 1023.2 0.0
30/02:00am 9.3 7.5 8.1 92 0.6 N 7 9 4 5 1023.7 1023.3 0.0
30/01:30am 9.5 7.8 8.3 92 0.6 NNW 7 7 4 4 1023.8 1023.4 0.0
30/01:00am 10.0 8.4 8.6 91 0.7 N 7 7 4 4 1023.9 1023.5 0.0
30/12:30am 10.6 8.7 9.0 90 0.8 N 9 13 5 7 1023.9 1023.5 0.0
30/12:00am 10.5 8.5 8.8 89 0.8 N 9 11 5 6 1024.1 1023.7 0.0
 
Date/Time
EDT
Temp
°C
App
Temp
°C
Dew
Point
Rel
Hum
%
Delta-T
°C
Wind Press
QNH
hPa
Press
MSL
hPa
Rain
since 9 am
mm
Dir
 
Spd
km/h
Gust
km/h
Spd
kts
Gust
kts
29/11:30pm 10.7 8.8 9.0 89 0.9 N 9 11 5 6 1024.2 1023.8 0.0
29/11:00pm 11.0 9.1 8.9 87 1.0 NNW 9 11 5 6 1024.4 1024.0 0.0
29/10:30pm 11.4 10.0 9.0 85 1.2 N 6 7 3 4 1024.4 1024.0 0.0
29/10:00pm 11.8 10.6 9.4 85 1.2 N 6 6 3 3 1024.4 1024.0 0.0
29/09:30pm 12.8 11.7 9.8 82 1.6 NE 6 6 3 3 1024.2 1023.8 0.0
29/09:00pm 13.3 12.2 9.9 80 1.8 E 6 7 3 4 1023.8 1023.4 0.0
29/08:30pm 13.7 12.3 9.7 77 2.1 ESE 7 9 4 5 1023.4 1023.0 0.0
29/08:00pm 14.5 12.8 9.7 73 2.5 ESE 9 13 5 7 1023.0 1022.5 0.0
29/07:30pm 15.6 12.7 9.7 68 3.1 ESE 15 22 8 12 1022.5 1022.0 0.0
29/07:00pm 19.5 17.2 7.6 46 6.1 S 9 19 5 10 1022.0 1021.5 0.0
29/06:30pm 20.6 17.5 7.2 42 6.9 SW 13 20 7 11 1021.4 1020.9 0.0
29/06:00pm 21.3 18.6 7.5 41 7.2 SW 11 19 6 10 1021.1 1020.6 0.0
29/05:30pm 22.1 19.0 7.1 38 7.8 WSW 13 22 7 12 1020.8 1020.3 0.0
29/05:00pm 22.5 19.2 6.3 35 8.3 WSW 13 26 7 14 1020.6 1020.1 0.0
29/04:30pm 22.8 19.5 6.6 35 8.4 WSW 13 20 7 11 1020.6 1020.1 0.0
29/04:00pm 22.8 19.3 7.0 36 8.2 WSW 15 32 8 17 1020.8 1020.3 0.0
29/03:30pm 22.4 19.7 7.4 38 7.9 W 11 24 6 13 1020.9 1020.4 0.0
29/03:00pm 22.3 20.2 8.1 40 7.5 WSW 9 20 5 11 1021.1 1020.6 0.0
29/02:30pm 22.0 18.7 8.2 41 7.3 W 15 24 8 13 1021.4 1020.9 0.0
29/02:00pm 21.8 19.6 8.0 41 7.3 WNW 9 19 5 10 1021.6 1021.1 0.0
29/01:30pm 20.8 17.5 8.1 44 6.7 WNW 15 24 8 13 1021.9 1021.4 0.0
29/01:00pm 20.0 16.9 8.7 48 6.0 W 15 24 8 13 1022.2 1021.7 0.0
29/12:30pm 20.0 17.4 9.3 50 5.7 W 13 20 7 11 1022.5 1022.0 0.0
29/12:00pm 18.4 16.1 8.9 54 5.0 WNW 11 19 6 10 1022.7 1022.2 0.0
29/11:30am 18.1 15.8 8.9 55 4.8 WNW 11 19 6 10 1023.0 1022.5 0.0
29/11:00am 17.6 15.7 9.0 57 4.5 WNW 9 17 5 9 1023.0 1022.5 0.0
29/10:30am 16.5 13.4 8.7 60 4.0 WNW 15 20 8 11 1023.1 1022.7 0.0
29/10:00am 15.6 14.1 9.1 65 3.4 W 7 13 4 7 1023.1 1022.7 0.0
29/09:30am 14.7 13.2 9.3 70 2.8 NW 7 11 4 6 1023.1 1022.7 0.0
29/09:00am 12.3 10.2 8.4 77 1.9 NNW 9 13 5 7 1022.8 1022.3 0.0
29/08:30am 10.3 7.2 7.4 82 1.4 NNW 13 17 7 9 1022.7 1022.2 0.0
29/08:00am 7.5 4.9 6.3 92 0.6 NNW 9 13 5 7 1022.4 1021.9 0.0
29/07:30am 6.0 3.5 4.6 91 0.6 NNW 7 9 4 5 1022.2 1021.7 0.0
29/07:00am 6.8 4.6 5.4 91 0.6 NW 6 9 3 5 1022.0 1021.5 0.0
29/06:30am 6.8 4.1 5.6 92 0.5 NNW 9 11 5 6 1021.6 1021.1 0.0
29/06:00am 6.5 3.8 5.5 93 0.4 NNW 9 11 5 6 1021.1 1020.6 0.0
29/05:30am 6.1 2.9 5.1 93 0.4 N 11 13 6 7 1020.8 1020.3 0.0
29/05:00am 6.0 3.2 5.1 94 0.4 N 9 13 5 7 1020.7 1020.2 0.0
29/04:30am 5.9 2.7 4.9 93 0.4 N 11 13 6 7 1020.7 1020.2 0.0
29/04:00am 6.3 3.5 5.3 93 0.4 N 9 11 5 6 1020.6 1020.1 0.0
29/03:30am 6.7 4.0 5.7 93 0.5 N 9 13 5 7 1020.9 1020.4 0.0
29/03:00am 6.6 3.9 5.7 94 0.4 N 9 13 5 7 1021.2 1020.7 0.0
29/02:30am 6.4 4.0 5.4 93 0.4 NNW 7 9 4 5 1021.8 1021.3 0.0
29/02:00am 6.8 4.1 5.7 93 0.5 N 9 9 5 5 1021.8 1021.3 0.0
29/01:30am 6.7 4.0 5.7 93 0.5 N 9 9 5 5 1022.1 1021.6 0.0
29/01:00am 6.9 4.2 5.7 92 0.5 N 9 9 5 5 1022.5 1022.0 0.0
29/12:30am 7.2 4.5 5.8 91 0.6 N 9 11 5 6 1022.6 1022.1 0.0
29/12:00am 7.3 4.7 5.9 91 0.6 N 9 9 5 5 1022.7 1022.2 0.0
 
Date/Time
EDT
Temp
°C
App
Temp
°C
Dew
Point
Rel
Hum
%
Delta-T
°C
Wind Press
QNH
hPa
Press
MSL
hPa
Rain
since 9 am
mm
Dir
 
Spd
km/h
Gust
km/h
Spd
kts
Gust
kts
28/11:30pm 7.7 5.5 6.2 90 0.7 NNW 7 9 4 5 1022.9 1022.4 0.0
28/11:00pm 8.1 5.9 6.4 89 0.8 N 7 9 4 5 1023.0 1022.5 0.0
28/10:30pm 8.7 6.6 6.8 88 0.9 N 7 9 4 5 1023.1 1022.7 0.0
28/10:00pm 9.3 7.5 7.1 86 1.0 N 6 7 3 4 1023.1 1022.7 0.0
28/09:30pm 10.3 9.0 7.5 83 1.4 N 4 6 2 3 1022.9 1022.4 0.0
28/09:00pm 11.6 11.1 7.9 78 1.8 CALM 0 0 0 0 1022.7 1022.2 0.0
28/08:30pm 12.5 12.0 7.8 73 2.3 CALM 0 0 0 0 1022.7 1022.2 0.0
28/08:00pm 13.3 12.1 8.0 70 2.6 S 4 6 2 3 1022.6 1022.1 0.0
28/07:30pm 14.3 12.2 8.3 67 3.0 SSW 9 13 5 7 1022.5 1022.0 0.0
28/07:00pm 15.4 13.3 8.2 62 3.7 SSW 9 13 5 7 1022.4 1021.9 0.0
28/06:30pm 16.2 13.7 8.4 60 4.0 SSW 11 15 6 8 1022.1 1021.6 0.0
28/06:00pm 17.3 15.2 8.4 56 4.6 SSW 9 15 5 8 1022.0 1021.5 0.0
28/05:30pm 18.1 16.4 8.4 53 5.1 WSW 7 13 4 7 1022.1 1021.6 0.0
28/05:00pm 18.1 16.0 8.4 53 5.0 SW 9 19 5 10 1022.3 1021.8 0.0
28/04:30pm 17.7 15.2 8.0 53 5.0 WSW 11 17 6 9 1022.5 1022.0 0.0
28/04:00pm 17.6 15.4 7.9 53 5.0 SW 9 17 5 9 1022.9 1022.4 0.0
28/03:30pm 17.5 15.4 8.4 55 4.7 SW 9 19 5 10 1023.2 1022.8 0.0
28/03:00pm 17.1 14.6 8.0 55 4.7 SW 11 19 6 10 1023.5 1023.1 0.0
28/02:30pm 16.9 15.1 8.1 56 4.5 S 7 19 4 10 1023.8 1023.4 0.0
28/02:00pm 16.2 14.3 7.7 57 4.3 W 7 19 4 10 1024.1 1023.7 0.0
28/01:30pm 15.3 13.3 7.3 59 4.0 WNW 7 15 4 8 1024.7 1024.3 0.0

Other Formats:

Comma delimited format used in spreadsheet applications
http://www.bom.gov.au/fwo/IDV60801/IDV60801.94863.axf

JavaScript Object Notation format (JSON) in row-major order
http://www.bom.gov.au/fwo/IDV60801/IDV60801.94863.json